createdAt,value
2023-01-07T00:01:24.389Z,60.69
2023-01-07T00:03:52.982Z,60.01
2023-01-07T00:06:22.089Z,60.52
2023-01-07T00:08:50.835Z,60.20
2023-01-07T00:11:20.594Z,59.65
2023-01-07T00:13:49.273Z,60.35
2023-01-07T00:16:19.328Z,59.81
2023-01-07T00:18:47.670Z,60.33
2023-01-07T00:21:17.675Z,60.24
2023-01-07T00:23:45.702Z,60.15
2023-01-07T00:26:14.285Z,60.22
2023-01-07T00:28:42.901Z,60.05
2023-01-07T00:31:11.490Z,60.22
2023-01-07T00:33:49.482Z,60.14
2023-01-07T00:36:17.040Z,60.75
2023-01-07T00:38:44.762Z,59.73
2023-01-07T00:41:12.566Z,59.73
2023-01-07T00:43:40.260Z,60.10
2023-01-07T00:46:07.904Z,60.56
2023-01-07T00:48:35.696Z,60.42
2023-01-07T00:51:04.666Z,59.93
2023-01-07T00:53:32.769Z,59.94
2023-01-07T00:56:00.354Z,60.62
2023-01-07T00:58:28.117Z,60.36
2023-01-07T01:00:56.107Z,59.76
2023-01-07T01:03:24.173Z,60.24
2023-01-07T01:05:52.208Z,59.88
2023-01-07T01:08:21.443Z,60.08
2023-01-07T01:10:49.014Z,59.63
2023-01-07T01:13:18.376Z,60.48
2023-01-07T01:15:49.216Z,60.26
2023-01-07T01:18:17.364Z,60.43
2023-01-07T01:20:45.216Z,60.00
2023-01-07T01:23:12.830Z,60.02
2023-01-07T01:25:43.077Z,59.78
2023-01-07T01:28:10.664Z,60.50
2023-01-07T01:30:38.467Z,60.17
2023-01-07T01:33:06.109Z,59.58
2023-01-07T01:35:33.840Z,59.87
2023-01-07T01:38:01.574Z,60.01
2023-01-07T01:40:30.798Z,59.56
2023-01-07T01:42:59.773Z,59.90
2023-01-07T01:45:27.478Z,59.91
2023-01-07T01:47:57.297Z,59.71
2023-01-07T01:50:26.469Z,59.66
2023-01-07T01:52:55.389Z,59.16
2023-01-07T01:55:24.783Z,59.69
2023-01-07T01:57:54.596Z,59.33
2023-01-07T02:00:23.759Z,59.14
2023-01-07T02:02:53.259Z,59.56
2023-01-07T02:05:21.168Z,59.75
2023-01-07T02:07:49.056Z,59.33
2023-01-07T02:10:19.589Z,59.50
2023-01-07T02:12:52.453Z,59.52
2023-01-07T02:15:26.543Z,59.61
2023-01-07T02:18:06.246Z,59.53
2023-01-07T02:20:44.478Z,59.21
2023-01-07T02:23:29.105Z,59.50
2023-01-07T02:26:20.551Z,59.74
2023-01-07T02:29:11.996Z,59.39
2023-01-07T02:32:13.161Z,59.29
2023-01-07T02:34:42.320Z,59.98
2023-01-07T02:37:12.201Z,59.56
2023-01-07T02:39:46.781Z,59.48
2023-01-07T02:42:17.507Z,59.91
2023-01-07T02:44:48.461Z,59.99
2023-01-07T02:47:18.950Z,59.67
2023-01-07T02:49:47.564Z,59.70
2023-01-07T02:52:18.412Z,59.73
2023-01-07T02:54:46.733Z,59.56
2023-01-07T02:57:34.379Z,59.66
2023-01-07T03:00:10.808Z,59.87
2023-01-07T03:02:53.612Z,59.58
2023-01-07T03:05:29.006Z,59.89
2023-01-07T03:08:06.700Z,60.06
2023-01-07T03:10:39.017Z,60.13
2023-01-07T03:13:07.551Z,59.79
2023-01-07T03:15:37.876Z,59.93
2023-01-07T03:18:08.844Z,59.39
2023-01-07T03:23:12.015Z,59.50
2023-01-07T03:25:41.461Z,59.00
2023-01-07T03:28:09.183Z,59.34
2023-01-07T03:30:36.858Z,59.54
2023-01-07T03:33:08.719Z,59.94
2023-01-07T03:35:36.302Z,59.23
2023-01-07T03:38:05.068Z,59.31
2023-01-07T03:40:32.629Z,59.46
2023-01-07T03:43:00.460Z,59.31
2023-01-07T03:45:28.516Z,59.86
2023-01-07T03:47:57.090Z,59.11
2023-01-07T03:50:26.004Z,59.94
2023-01-07T03:52:53.680Z,59.93
2023-01-07T03:55:21.282Z,59.33
2023-01-07T03:57:49.015Z,59.42
2023-01-07T04:00:16.935Z,59.34
2023-01-07T04:02:44.829Z,59.67
2023-01-07T04:05:12.487Z,59.41
2023-01-07T04:07:41.623Z,59.94
2023-01-07T04:10:09.844Z,59.57
2023-01-07T04:12:37.532Z,60.10
2023-01-07T04:15:05.568Z,59.83
2023-01-07T04:17:33.249Z,60.03
2023-01-07T04:20:00.835Z,59.99
2023-01-07T04:22:28.437Z,60.08
2023-01-07T04:24:57.910Z,60.14
2023-01-07T04:27:25.539Z,60.06
2023-01-07T04:29:53.315Z,59.67
2023-01-07T04:32:20.953Z,59.54
2023-01-07T04:34:48.641Z,60.14
2023-01-07T04:37:16.172Z,60.26
2023-01-07T04:39:43.879Z,60.11
2023-01-07T04:42:12.786Z,59.69
2023-01-07T04:44:40.601Z,59.81
2023-01-07T04:47:08.168Z,60.19
2023-01-07T04:49:35.971Z,59.74
2023-01-07T04:52:04.115Z,59.89
2023-01-07T04:54:31.897Z,60.06
2023-01-07T04:56:59.685Z,59.77
2023-01-07T04:59:28.790Z,59.99
2023-01-07T05:01:56.491Z,59.80
2023-01-07T05:04:24.286Z,60.06
2023-01-07T05:06:51.872Z,60.22
2023-01-07T05:09:19.585Z,59.74
2023-01-07T05:11:47.195Z,59.91
2023-01-07T05:14:14.959Z,59.81
2023-01-07T05:16:43.988Z,60.29
2023-01-07T05:19:12.282Z,59.63
2023-01-07T05:21:40.075Z,60.12
2023-01-07T05:24:08.704Z,60.01
2023-01-07T05:26:36.397Z,59.94
2023-01-07T05:29:03.947Z,60.08
2023-01-07T05:31:31.499Z,59.74
2023-01-07T05:34:00.668Z,60.07
2023-01-07T05:36:28.228Z,59.88
2023-01-07T05:38:55.918Z,59.74
2023-01-07T05:41:23.495Z,59.28
2023-01-07T05:43:51.047Z,59.37
2023-01-07T05:46:19.288Z,59.27
2023-01-07T05:48:46.892Z,59.27
2023-01-07T05:51:15.943Z,59.18
2023-01-07T05:53:43.748Z,59.24
2023-01-07T05:56:11.320Z,58.84
2023-01-07T05:58:39.083Z,58.90
2023-01-07T06:01:06.839Z,59.38
2023-01-07T06:03:35.679Z,58.97
2023-01-07T06:06:07.139Z,59.04
2023-01-07T06:08:36.521Z,58.71
2023-01-07T06:11:04.676Z,58.43
2023-01-07T06:13:32.499Z,58.89
2023-01-07T06:16:00.904Z,58.60
2023-01-07T06:18:28.632Z,58.88
2023-01-07T06:20:56.311Z,58.25
2023-01-07T06:23:23.946Z,58.93
2023-01-07T06:25:53.000Z,58.88
2023-01-07T06:28:20.573Z,58.27
2023-01-07T06:30:48.662Z,58.90
2023-01-07T06:33:16.813Z,58.09
2023-01-07T06:35:46.175Z,58.57
2023-01-07T06:38:14.056Z,58.14
2023-01-07T06:40:41.965Z,58.18
2023-01-07T06:43:10.989Z,58.61
2023-01-07T06:45:41.341Z,58.27
2023-01-07T06:48:09.387Z,57.91
2023-01-07T06:50:37.319Z,58.25
2023-01-07T06:53:05.125Z,58.33
2023-01-07T06:55:33.222Z,57.75
2023-01-07T06:58:01.114Z,58.04
2023-01-07T07:00:30.434Z,58.35
2023-01-07T07:02:58.491Z,57.75
2023-01-07T07:05:26.159Z,57.76
2023-01-07T07:07:53.912Z,57.62
2023-01-07T07:10:21.691Z,57.53
2023-01-07T07:12:49.343Z,57.52
2023-01-07T07:15:16.991Z,57.00
2023-01-07T07:17:46.806Z,56.84
2023-01-07T07:20:14.441Z,56.54
2023-01-07T07:22:45.735Z,56.49
2023-01-07T07:25:13.437Z,56.59
2023-01-07T07:27:41.040Z,55.96
2023-01-07T07:30:10.026Z,56.34
2023-01-07T07:32:37.772Z,56.11
2023-01-07T07:35:07.673Z,56.21
2023-01-07T07:37:35.536Z,55.98
2023-01-07T07:40:03.236Z,56.07
2023-01-07T07:42:31.020Z,56.26
2023-01-07T07:44:58.915Z,56.14
2023-01-07T07:47:26.772Z,55.75
2023-01-07T07:49:54.655Z,55.51
2023-01-07T07:52:23.846Z,55.61
2023-01-07T07:54:51.650Z,55.84
2023-01-07T07:57:46.700Z,55.16
2023-01-07T08:00:15.419Z,55.77
2023-01-07T08:02:43.046Z,55.13
2023-01-07T08:05:12.680Z,55.15
2023-01-07T08:07:41.703Z,55.08
2023-01-07T08:10:10.156Z,55.09
2023-01-07T08:12:38.174Z,54.21
2023-01-07T08:15:07.297Z,54.70
2023-01-07T08:17:36.257Z,54.84
2023-01-07T08:20:03.888Z,54.73
2023-01-07T08:22:31.672Z,54.67
2023-01-07T08:25:00.682Z,53.86
2023-01-07T08:27:28.631Z,53.92
2023-01-07T08:29:56.351Z,54.15
2023-01-07T08:32:24.129Z,53.96
2023-01-07T08:34:51.888Z,53.73
2023-01-07T08:37:19.451Z,54.42
2023-01-07T08:39:47.223Z,54.32
2023-01-07T08:42:16.469Z,54.15
2023-01-07T08:44:44.125Z,53.79
2023-01-07T08:47:11.744Z,53.84
2023-01-07T08:49:39.306Z,53.78
2023-01-07T08:52:07.191Z,53.12
2023-01-07T08:54:34.750Z,53.90
2023-01-07T08:57:02.559Z,53.84
2023-01-07T08:59:31.552Z,53.85
2023-01-07T09:01:59.920Z,53.71
2023-01-07T09:04:27.583Z,53.38
2023-01-07T09:06:55.630Z,53.54
2023-01-07T09:09:23.206Z,53.17
2023-01-07T09:11:50.802Z,53.50
2023-01-07T09:14:18.364Z,53.12
2023-01-07T09:16:47.333Z,53.73
2023-01-07T09:19:15.121Z,53.92
2023-01-07T09:21:42.769Z,53.90
2023-01-07T09:24:10.383Z,53.77
2023-01-07T09:26:38.015Z,53.95
2023-01-07T09:29:05.577Z,53.51
2023-01-07T09:31:33.375Z,53.83
2023-01-07T09:34:02.322Z,53.92
2023-01-07T09:36:30.050Z,53.60
2023-01-07T09:38:57.596Z,53.75
2023-01-07T09:41:29.420Z,53.45
2023-01-07T09:44:09.642Z,53.37
2023-01-07T09:46:37.273Z,53.61
2023-01-07T09:49:18.357Z,53.69
2023-01-07T09:51:47.303Z,53.70
2023-01-07T09:54:19.805Z,53.51
2023-01-07T09:56:47.371Z,53.62
2023-01-07T09:59:15.044Z,53.22
2023-01-07T10:01:44.166Z,52.99
2023-01-07T10:04:29.886Z,53.01
2023-01-07T10:07:01.926Z,52.32
2023-01-07T10:09:34.486Z,51.24
2023-01-07T10:12:05.702Z,51.02
2023-01-07T10:14:44.965Z,50.58
2023-01-07T10:17:19.479Z,49.98
2023-01-07T10:19:50.729Z,48.07
2023-01-07T10:22:21.510Z,46.66
2023-01-07T10:24:51.803Z,44.94
2023-01-07T10:27:23.189Z,42.47
2023-01-07T10:29:52.071Z,39.15
2023-01-07T10:32:20.819Z,37.69
2023-01-07T10:34:50.625Z,36.22
2023-01-07T10:37:23.607Z,35.07
2023-01-07T10:39:53.965Z,34.46
2023-01-07T10:42:23.290Z,33.30
2023-01-07T10:45:01.987Z,32.43
2023-01-07T10:47:36.439Z,32.97
2023-01-07T10:50:19.085Z,34.05
2023-01-07T10:52:48.589Z,35.43
2023-01-07T10:55:29.324Z,35.95
2023-01-07T10:57:56.877Z,35.78
2023-01-07T11:00:24.523Z,35.04
2023-01-07T11:02:53.730Z,33.59
2023-01-07T11:05:22.686Z,31.92
2023-01-07T11:07:52.118Z,33.58
2023-01-07T11:10:20.843Z,34.77
2023-01-07T11:12:50.217Z,36.40
2023-01-07T11:15:21.406Z,37.24
2023-01-07T11:17:51.070Z,38.26
2023-01-07T11:20:44.319Z,39.03
2023-01-07T11:23:29.750Z,39.79
2023-01-07T11:26:13.035Z,40.34
2023-01-07T11:28:43.679Z,40.99
2023-01-07T11:31:11.264Z,41.55
2023-01-07T11:34:02.419Z,42.23
2023-01-07T11:36:41.282Z,42.76
2023-01-07T11:39:12.294Z,43.17
2023-01-07T11:41:39.899Z,43.04
2023-01-07T11:44:15.245Z,43.59
2023-01-07T11:46:44.804Z,43.33
2023-01-07T11:49:20.974Z,44.03
2023-01-07T11:51:49.967Z,44.37
2023-01-07T11:54:20.745Z,44.55
2023-01-07T11:56:48.321Z,45.09
2023-01-07T11:59:24.533Z,44.80
2023-01-07T12:01:53.119Z,44.88
2023-01-07T12:04:22.708Z,44.70
2023-01-07T12:06:52.515Z,44.68
2023-01-07T12:09:24.965Z,44.65
2023-01-07T12:11:52.775Z,44.78
2023-01-07T12:14:25.030Z,44.41
2023-01-07T12:16:52.923Z,43.75
2023-01-07T12:19:31.513Z,43.40
2023-01-07T12:22:09.850Z,43.34
2023-01-07T12:24:50.670Z,42.51
2023-01-07T12:27:23.617Z,41.45
2023-01-07T12:29:58.979Z,41.49
2023-01-07T12:32:34.296Z,41.97
2023-01-07T12:35:14.596Z,42.39
2023-01-07T12:37:45.260Z,42.81
2023-01-07T12:40:20.223Z,43.14
2023-01-07T12:42:50.661Z,42.90
2023-01-07T12:45:20.531Z,43.28
2023-01-07T12:47:50.542Z,43.53
2023-01-07T12:50:19.213Z,43.78
2023-01-07T12:52:48.961Z,43.80
2023-01-07T12:55:20.551Z,43.92
2023-01-07T12:57:56.299Z,43.64
2023-01-07T13:00:24.912Z,43.34
2023-01-07T13:02:54.513Z,42.82
2023-01-07T13:05:23.128Z,40.81
2023-01-07T13:07:53.677Z,40.17
2023-01-07T13:10:24.645Z,40.27
2023-01-07T13:12:53.321Z,40.98
2023-01-07T13:15:25.326Z,41.20
2023-01-07T13:17:54.476Z,41.43
2023-01-07T13:20:31.439Z,42.32
2023-01-07T13:23:00.590Z,42.46
2023-01-07T13:25:35.944Z,42.89
2023-01-07T13:28:17.322Z,43.04
2023-01-07T13:30:47.644Z,43.19
2023-01-07T13:33:16.774Z,43.48
2023-01-07T13:35:55.787Z,43.77
2023-01-07T13:38:42.670Z,43.69
2023-01-07T13:41:39.737Z,43.98
2023-01-07T13:44:29.511Z,44.36
2023-01-07T13:46:57.096Z,44.56
2023-01-07T13:49:26.492Z,45.02
2023-01-07T13:51:54.142Z,44.99
2023-01-07T13:54:58.980Z,44.70
2023-01-07T13:57:43.129Z,44.87
2023-01-07T14:00:42.378Z,45.22
2023-01-07T14:03:54.671Z,45.91
2023-01-07T14:06:46.396Z,45.45
2023-01-07T14:09:39.125Z,46.00
2023-01-07T14:12:43.584Z,45.76
2023-01-07T14:15:28.569Z,45.85
2023-01-07T14:18:21.008Z,46.13
2023-01-07T14:20:49.338Z,46.52
2023-01-07T14:23:23.026Z,46.57
2023-01-07T14:25:58.413Z,46.88
2023-01-07T14:28:36.927Z,46.71
2023-01-07T14:31:04.608Z,47.18
2023-01-07T14:33:34.976Z,46.81
2023-01-07T14:36:04.043Z,47.11
2023-01-07T14:39:08.211Z,47.12
2023-01-07T14:41:35.864Z,47.30
2023-01-07T14:44:06.534Z,47.48
2023-01-07T14:46:47.882Z,47.12
2023-01-07T14:49:53.798Z,47.50
2023-01-07T14:52:30.581Z,47.74
2023-01-07T14:55:35.315Z,47.71
2023-01-07T14:58:29.896Z,47.76
2023-01-07T15:01:05.605Z,47.66
2023-01-07T15:03:42.771Z,48.47
2023-01-07T15:06:25.029Z,48.51
2023-01-07T15:09:11.316Z,48.33
2023-01-07T15:11:56.633Z,48.34
2023-01-07T15:14:45.484Z,48.54
2023-01-07T15:17:15.273Z,49.34
2023-01-07T15:19:42.885Z,48.70
2023-01-07T15:22:46.407Z,49.27
2023-01-07T15:25:33.352Z,49.42
2023-01-07T15:28:04.093Z,49.22
2023-01-07T15:30:41.056Z,49.39
2023-01-07T15:33:20.378Z,49.20
2023-01-07T15:35:47.956Z,49.58
2023-01-07T15:38:25.421Z,49.58
2023-01-07T15:40:52.995Z,49.54
2023-01-07T15:43:22.261Z,49.65
2023-01-07T15:45:49.834Z,49.68
2023-01-07T15:48:18.737Z,49.40
2023-01-07T15:50:46.591Z,49.68
2023-01-07T15:53:18.899Z,49.77
2023-01-07T15:55:52.252Z,49.57
2023-01-07T15:58:20.686Z,49.50
2023-01-07T16:00:50.631Z,49.33
2023-01-07T16:03:20.080Z,49.77
2023-01-07T16:05:47.779Z,49.38
2023-01-07T16:08:16.878Z,49.39
2023-01-07T16:10:45.302Z,49.69
2023-01-07T16:13:18.323Z,49.46
2023-01-07T16:15:46.088Z,49.45
2023-01-07T16:18:19.758Z,49.60
2023-01-07T16:20:52.250Z,49.36
2023-01-07T16:23:21.171Z,49.44
2023-01-07T16:25:50.681Z,49.18
2023-01-07T16:28:19.454Z,49.47
2023-01-07T16:30:47.301Z,49.19
2023-01-07T16:33:16.832Z,49.37
2023-01-07T16:35:46.299Z,49.57
2023-01-07T16:38:14.206Z,49.20
2023-01-07T16:40:41.830Z,49.28
2023-01-07T16:43:33.191Z,49.51
2023-01-07T16:46:20.674Z,49.42
2023-01-07T16:48:48.504Z,49.62
2023-01-07T16:51:39.150Z,49.63
2023-01-07T16:54:30.878Z,49.97
2023-01-07T16:56:58.890Z,49.81
2023-01-07T16:59:28.696Z,49.67
2023-01-07T17:01:56.480Z,49.98
2023-01-07T17:04:25.077Z,50.15
2023-01-07T17:06:54.044Z,50.27
2023-01-07T17:09:22.614Z,49.92
2023-01-07T17:11:51.777Z,49.90
2023-01-07T17:14:44.780Z,49.65
2023-01-07T17:17:20.520Z,50.36
2023-01-07T17:19:50.286Z,50.32
2023-01-07T17:22:32.967Z,49.84
2023-01-07T17:25:04.470Z,49.89
2023-01-07T17:27:32.091Z,50.06
2023-01-07T17:30:02.604Z,49.98
2023-01-07T17:32:44.910Z,50.33
2023-01-07T17:35:20.029Z,50.21
2023-01-07T17:37:49.073Z,50.19
2023-01-07T17:40:16.825Z,50.26
2023-01-07T17:43:02.131Z,50.40
2023-01-07T17:45:29.757Z,50.49
2023-01-07T17:47:58.782Z,50.30
2023-01-07T17:50:36.379Z,50.32
2023-01-07T17:53:05.496Z,50.51
2023-01-07T17:55:34.904Z,50.43
2023-01-07T17:58:04.208Z,50.82
2023-01-07T18:00:33.158Z,50.63
2023-01-07T18:03:01.250Z,50.79
2023-01-07T18:05:30.275Z,50.04
2023-01-07T18:07:58.169Z,50.83
2023-01-07T18:10:49.749Z,50.35
2023-01-07T18:13:16.836Z,50.54
2023-01-07T18:15:44.669Z,50.15
2023-01-07T18:18:12.704Z,50.10
2023-01-07T18:20:40.874Z,50.15
2023-01-07T18:23:10.341Z,50.02
2023-01-07T18:25:39.642Z,50.41
2023-01-07T18:28:15.047Z,50.02
2023-01-07T18:30:42.754Z,50.39
2023-01-07T18:33:11.210Z,50.04
2023-01-07T18:35:40.521Z,50.11
2023-01-07T18:38:12.508Z,50.36
2023-01-07T18:40:41.521Z,50.21
2023-01-07T18:43:12.098Z,49.99
2023-01-07T18:45:41.567Z,50.14
2023-01-07T18:48:09.235Z,50.03
2023-01-07T18:50:36.877Z,49.69
2023-01-07T18:53:04.563Z,50.13
2023-01-07T18:55:32.132Z,50.00
2023-01-07T18:58:01.157Z,50.13
2023-01-07T19:00:30.307Z,50.08
2023-01-07T19:02:58.663Z,50.85
2023-01-07T19:05:26.229Z,50.56
2023-01-07T19:07:55.291Z,50.55
2023-01-07T19:10:23.031Z,50.48
2023-01-07T19:12:54.311Z,50.04
2023-01-07T19:15:23.362Z,50.34
2023-01-07T19:17:51.037Z,50.53
2023-01-07T19:20:18.680Z,50.25
2023-01-07T19:22:46.241Z,50.54
2023-01-07T19:25:13.876Z,50.20
2023-01-07T19:27:41.499Z,50.58
2023-01-07T19:30:10.488Z,50.84
2023-01-07T19:32:39.495Z,50.70
2023-01-07T19:35:08.102Z,50.33
2023-01-07T19:37:37.494Z,50.54
2023-01-07T19:40:05.606Z,50.52
2023-01-07T19:42:33.287Z,50.77
2023-01-07T19:45:00.850Z,50.62
2023-01-07T19:47:28.506Z,50.85
2023-01-07T19:49:57.405Z,51.06
2023-01-07T19:52:24.956Z,50.85
2023-01-07T19:54:52.750Z,51.01
2023-01-07T19:57:20.338Z,50.81
2023-01-07T19:59:47.995Z,51.23
2023-01-07T20:02:15.858Z,50.70
2023-01-07T20:04:43.590Z,50.88
2023-01-07T20:07:12.568Z,51.13
2023-01-07T20:09:40.512Z,50.62
2023-01-07T20:12:08.269Z,50.59
2023-01-07T20:14:35.884Z,50.41
2023-01-07T20:17:03.501Z,50.36
2023-01-07T20:19:31.071Z,50.45
2023-01-07T20:21:58.621Z,50.20
2023-01-07T20:24:27.622Z,50.23
2023-01-07T20:26:55.217Z,50.40
2023-01-07T20:29:22.774Z,50.21
2023-01-07T20:31:50.440Z,49.86
2023-01-07T20:34:18.203Z,49.90
2023-01-07T20:36:45.803Z,50.22
2023-01-07T20:39:13.468Z,49.90
2023-01-07T20:41:43.723Z,49.88
2023-01-07T20:44:11.756Z,50.35
2023-01-07T20:46:40.670Z,50.43
2023-01-07T20:49:08.499Z,50.72
2023-01-07T20:51:36.068Z,50.62
2023-01-07T20:54:03.769Z,50.97
2023-01-07T20:56:32.779Z,51.42
2023-01-07T20:59:01.928Z,51.63
2023-01-07T21:01:29.909Z,52.46
2023-01-07T21:03:57.689Z,52.94
2023-01-07T21:06:25.389Z,52.64
2023-01-07T21:08:53.172Z,53.32
2023-01-07T21:11:22.907Z,53.57
2023-01-07T21:13:50.985Z,53.58
2023-01-07T21:16:20.195Z,53.63
2023-01-07T21:18:47.971Z,53.72
2023-01-07T21:21:16.807Z,54.05
2023-01-07T21:23:46.543Z,54.42
2023-01-07T21:26:14.793Z,54.84
2023-01-07T21:28:44.440Z,55.06
2023-01-07T21:31:13.096Z,55.47
2023-01-07T21:33:42.490Z,55.44
2023-01-07T21:36:10.599Z,55.74
2023-01-07T21:38:38.415Z,56.06
2023-01-07T21:41:07.332Z,55.68
2023-01-07T21:43:35.155Z,56.13
2023-01-07T21:46:02.791Z,55.72
2023-01-07T21:48:32.589Z,55.63
2023-01-07T21:51:03.717Z,55.32
2023-01-07T21:53:31.696Z,55.52
2023-01-07T21:55:59.231Z,55.20
2023-01-07T21:58:26.937Z,55.28
2023-01-07T22:00:54.613Z,55.17
2023-01-07T22:03:22.438Z,55.08
2023-01-07T22:05:57.168Z,54.98
2023-01-07T22:08:26.124Z,54.66
2023-01-07T22:10:53.940Z,54.67
2023-01-07T22:13:21.701Z,54.75
2023-01-07T22:15:49.511Z,54.63
2023-01-07T22:18:17.235Z,54.18
2023-01-07T22:20:45.083Z,54.24
2023-01-07T22:23:16.007Z,53.74
2023-01-07T22:25:45.236Z,54.09
2023-01-07T22:28:12.978Z,54.03
2023-01-07T22:30:40.958Z,53.26
2023-01-07T22:33:08.677Z,53.21
2023-01-07T22:35:36.281Z,53.32
2023-01-07T22:38:04.186Z,53.45
2023-01-07T22:40:31.796Z,52.79
2023-01-07T22:43:00.741Z,52.91
2023-01-07T22:45:31.908Z,52.90
2023-01-07T22:47:59.543Z,52.60
2023-01-07T22:50:27.339Z,52.54
2023-01-07T22:52:54.878Z,52.94
2023-01-07T22:55:22.562Z,52.63
2023-01-07T22:57:50.196Z,52.82
2023-01-07T23:00:40.872Z,52.38
2023-01-07T23:03:09.740Z,52.66
2023-01-07T23:05:39.616Z,52.51
2023-01-07T23:08:08.234Z,52.75
2023-01-07T23:10:36.484Z,52.26
2023-01-07T23:13:04.195Z,52.04
2023-01-07T23:15:31.965Z,52.32
2023-01-07T23:18:00.911Z,52.09
2023-01-07T23:20:30.657Z,52.01
2023-01-07T23:22:58.372Z,52.39
2023-01-07T23:25:26.066Z,52.31
2023-01-07T23:27:53.812Z,52.70
2023-01-07T23:30:21.435Z,52.76
2023-01-07T23:32:49.140Z,52.97
2023-01-07T23:35:18.198Z,52.58
2023-01-07T23:37:45.897Z,53.35
2023-01-07T23:40:13.634Z,53.18
2023-01-07T23:42:41.198Z,53.02
2023-01-07T23:45:09.736Z,53.75
2023-01-07T23:47:37.313Z,53.95
2023-01-07T23:50:05.808Z,54.51
2023-01-07T23:52:34.738Z,55.22
2023-01-07T23:55:02.561Z,55.42
2023-01-07T23:57:30.145Z,55.05
